Time;durP1;ratioP1;P1;durP2;ratioP2;P2;SDS_P1;SDS_P2;PMS_P1;PMS_P2;Temp;Humidity;BMP_temperature;BMP_pressure;BME280_temperature;BME280_humidity;BME280_pressure;Samples;Min_cycle;Max_cycle;Signal;HPM_P1;HPM_P2
2022/10/29 00:02:18;;;;;;;6.43;3.23;;;;;;;11.77;83.94;95555.66;5052315;28;20185;-64
2022/10/29 00:04:43;;;;;;;6.87;3.40;;;;;;;11.82;83.80;95567.22;5051800;28;20214;-60
2022/10/29 00:07:09;;;;;;;8.50;3.50;;;;;;;12.10;81.94;95587.16;5051664;28;20629;-59
2022/10/29 00:09:34;;;;;;;6.67;3.60;;;;;;;12.12;81.33;95596.28;5053198;28;20296;-61
2022/10/29 00:12:00;;;;;;;9.13;4.00;;;;;;;11.91;81.42;95581.81;5053699;28;20263;-60
2022/10/29 00:14:25;;;;;;;6.10;3.80;;;;;;;11.70;82.17;95579.13;5053046;28;20374;-59
2022/10/29 00:16:50;;;;;;;5.50;3.87;;;;;;;11.41;82.76;95563.41;5054121;28;20190;-60
2022/10/29 00:19:16;;;;;;;6.40;3.10;;;;;;;11.20;83.46;95551.44;5053247;28;20225;-60
2022/10/29 00:21:41;;;;;;;9.97;3.50;;;;;;;11.15;84.55;95545.88;5054108;28;20190;-63
2022/10/29 00:24:09;;;;;;;8.43;3.20;;;;;;;10.94;84.54;95532.97;5053370;28;20745;-60
2022/10/29 00:26:34;;;;;;;4.27;3.33;;;;;;;10.90;84.63;95531.56;5053336;28;20203;-61
2022/10/29 00:29:00;;;;;;;5.00;3.03;;;;;;;10.74;84.53;95536.13;5052626;28;20210;-60
2022/10/29 00:31:26;;;;;;;3.67;2.93;;;;;;;10.64;86.15;95514.81;5051944;28;20193;-60
2022/10/29 00:33:54;;;;;;;4.43;3.20;;;;;;;10.59;85.80;95521.94;5051461;28;20224;-61
2022/10/29 00:36:25;;;;;;;4.70;2.67;;;;;;;10.52;86.05;95515.69;5035520;28;20652;-60
2022/10/29 00:38:51;;;;;;;3.43;2.63;;;;;;;10.42;86.36;95514.72;5051352;28;20691;-64
2022/10/29 00:41:19;;;;;;;3.37;2.77;;;;;;;10.34;87.40;95506.81;5033484;28;20188;-62
2022/10/29 00:43:51;;;;;;;5.77;2.90;;;;;;;10.27;87.82;95505.63;5051538;28;20188;-61
2022/10/29 00:46:32;;;;;;;4.07;2.80;;;;;;;10.31;87.67;95509.56;5052010;28;20181;-60
2022/10/29 00:48:58;;;;;;;4.17;2.53;;;;;;;10.34;87.65;95517.81;5052166;28;20220;-59
2022/10/29 00:51:25;;;;;;;2.67;2.47;;;;;;;10.31;88.66;95502.75;5052248;28;20177;-62
2022/10/29 00:54:00;;;;;;;6.77;3.10;;;;;;;10.33;88.49;95505.19;5033657;28;20304;-61
2022/10/29 00:56:28;;;;;;;4.50;3.20;;;;;;;10.27;88.97;95505.63;5033695;28;20192;-60
2022/10/29 00:58:53;;;;;;;5.77;3.13;;;;;;;9.99;90.86;95489.72;5033138;28;20595;-60
2022/10/29 01:01:20;;;;;;;4.50;2.93;;;;;;;10.10;90.72;95496.63;5051597;28;20193;-62
2022/10/29 01:03:47;;;;;;;3.37;2.67;;;;;;;10.16;90.15;95503.81;5051052;28;20186;-64
2022/10/29 01:06:13;;;;;;;4.53;3.03;;;;;;;10.10;90.49;95515.22;5050980;28;20272;-62
2022/10/29 01:08:39;;;;;;;4.57;2.47;;;;;;;10.05;91.07;95504.53;5033497;28;20655;-61
2022/10/29 01:11:38;;;;;;;6.60;3.27;;;;;;;10.15;90.53;95507.28;5050955;28;20279;-60
2022/10/29 01:14:22;;;;;;;5.97;3.07;;;;;;;9.98;91.94;95492.34;5051370;28;20209;-60
2022/10/29 01:17:13;;;;;;;5.17;2.73;;;;;;;10.16;91.57;95508.09;5051090;28;20612;-60
2022/10/29 01:20:00;;;;;;;5.93;2.60;;;;;;;10.06;90.78;95506.16;5051274;28;20225;-61
2022/10/29 01:22:56;;;;;;;3.90;2.47;;;;;;;9.93;91.72;95497.78;5033623;28;20200;-63
2022/10/29 01:25:43;;;;;;;4.40;3.10;;;;;;;10.08;92.47;95496.69;5050889;28;20274;-64
2022/10/29 01:28:40;;;;;;;9.40;3.67;;;;;;;10.13;91.03;95512.47;5050741;28;20196;-63
2022/10/29 01:31:18;;;;;;;5.27;2.83;;;;;;;10.05;91.47;95502.00;5050835;28;20188;-59
2022/10/29 01:33:46;;;;;;;4.63;2.77;;;;;;;9.88;92.39;95489.63;5050749;28;20197;-59
2022/10/29 01:36:21;;;;;;;5.30;3.07;;;;;;;9.86;92.70;95483.84;5051351;28;20254;-60
2022/10/29 01:39:04;;;;;;;4.33;3.03;;;;;;;9.89;92.73;95496.34;5051029;28;20315;-60
2022/10/29 01:41:44;;;;;;;3.57;2.57;;;;;;;9.94;92.05;95504.47;5050917;28;20200;-60
2022/10/29 01:44:35;;;;;;;6.43;2.93;;;;;;;9.84;93.43;95487.41;5033169;28;20324;-59
2022/10/29 01:47:04;;;;;;;3.13;2.50;;;;;;;10.01;92.20;95510.75;5051082;28;20591;-60
2022/10/29 01:49:42;;;;;;;5.27;2.80;;;;;;;9.96;92.19;95504.34;5051314;28;20671;-61
2022/10/29 01:52:12;;;;;;;4.23;3.00;;;;;;;9.95;92.07;95500.19;5051166;28;20221;-62
2022/10/29 01:54:42;;;;;;;4.13;3.23;;;;;;;9.98;91.86;95513.50;5050923;28;20715;-59
2022/10/29 01:57:31;;;;;;;3.33;3.00;;;;;;;9.90;92.30;95507.31;5051143;28;20228;-64
2022/10/29 02:00:12;;;;;;;2.80;2.50;;;;;;;9.60;93.76;95481.47;5050849;28;20374;-60
2022/10/29 02:02:52;;;;;;;4.80;3.00;;;;;;;9.41;95.52;95464.16;5050275;28;20189;-61
2022/10/29 02:05:25;;;;;;;5.47;2.97;;;;;;;9.22;97.02;95463.72;5051167;28;20647;-60
2022/10/29 02:08:00;;;;;;;5.60;2.73;;;;;;;9.14;99.23;95459.16;5051053;28;20216;-59
2022/10/29 02:10:34;;;;;;;7.30;2.83;;;;;;;9.15;97.48;95473.47;5050196;28;20217;-59
2022/10/29 02:12:59;;;;;;;3.40;2.37;;;;;;;9.23;96.98;95490.75;5050685;28;20268;-62
2022/10/29 02:15:37;;;;;;;5.80;3.10;;;;;;;9.32;96.38;95496.00;5050719;28;20313;-60
2022/10/29 02:18:06;;;;;;;5.60;3.73;;;;;;;9.12;97.50;95475.41;5050785;28;20188;-62
2022/10/29 02:20:32;;;;;;;3.03;2.13;;;;;;;9.11;97.85;95473.78;5050025;28;20217;-63
2022/10/29 02:22:57;;;;;;;4.90;2.60;;;;;;;9.16;98.41;95477.63;5050180;28;20265;-63
2022/10/29 02:25:23;;;;;;;3.37;2.13;;;;;;;9.14;97.62;95476.94;5050311;28;20620;-63
2022/10/29 02:27:48;;;;;;;2.97;2.60;;;;;;;9.22;97.77;95484.03;5050446;28;20193;-63
2022/10/29 02:30:15;;;;;;;4.13;2.63;;;;;;;9.17;98.66;95473.38;5036335;28;20300;-62
2022/10/29 02:32:40;;;;;;;5.07;3.10;;;;;;;9.23;98.80;95480.59;5054152;28;20236;-63
2022/10/29 02:35:06;;;;;;;4.93;2.90;;;;;;;9.31;98.86;95483.44;5054126;28;20237;-61
2022/10/29 02:37:31;;;;;;;3.10;2.80;;;;;;;9.49;96.54;95505.03;5053309;28;20251;-60
2022/10/29 02:39:57;;;;;;;4.57;2.80;;;;;;;9.58;95.78;95514.56;5053430;28;20201;-60
2022/10/29 02:42:22;;;;;;;4.57;3.33;;;;;;;9.57;94.40;95518.03;5053357;28;20192;-59
2022/10/29 02:44:48;;;;;;;5.07;3.07;;;;;;;9.64;93.00;95526.84;5053533;28;20308;-60
2022/10/29 02:47:13;;;;;;;4.53;2.87;;;;;;;9.52;94.63;95507.38;5053179;28;20180;-60
2022/10/29 02:49:39;;;;;;;3.63;2.53;;;;;;;9.39;95.34;95493.88;5053931;28;20240;-60
2022/10/29 02:52:04;;;;;;;5.87;3.10;;;;;;;9.55;94.68;95512.25;5053758;28;20182;-60
2022/10/29 02:54:30;;;;;;;5.93;3.53;;;;;;;9.51;93.93;95520.97;5053199;28;20288;-60
2022/10/29 02:56:55;;;;;;;5.27;3.00;;;;;;;9.62;93.00;95533.75;5053364;28;20216;-59
2022/10/29 02:59:20;;;;;;;4.93;3.37;;;;;;;9.44;93.14;95518.94;5035315;28;20224;-59
2022/10/29 03:01:46;;;;;;;4.47;3.30;;;;;;;9.14;95.33;95499.75;5053233;28;20186;-62
2022/10/29 03:04:11;;;;;;;5.70;3.17;;;;;;;9.16;96.39;95497.94;5054153;28;20194;-61
2022/10/29 03:06:37;;;;;;;5.17;3.10;;;;;;;9.12;97.08;95480.47;5035546;28;20632;-60
2022/10/29 03:09:03;;;;;;;4.03;3.27;;;;;;;9.21;97.92;95484.97;5053357;28;20217;-61
2022/10/29 03:11:28;;;;;;;4.27;3.33;;;;;;;9.11;97.87;95494.09;5053122;28;20192;-61
2022/10/29 03:13:54;;;;;;;4.70;3.03;;;;;;;9.24;96.46;95500.78;5051753;28;20210;-60
2022/10/29 03:16:19;;;;;;;5.37;3.03;;;;;;;9.39;95.10;95516.72;5052923;28;20221;-61
2022/10/29 03:18:45;;;;;;;4.47;3.03;;;;;;;9.29;95.22;95501.28;5052708;28;20201;-60
2022/10/29 03:21:10;;;;;;;4.47;2.90;;;;;;;9.32;96.37;95500.25;5052640;28;20213;-61
2022/10/29 03:23:35;;;;;;;4.63;3.40;;;;;;;9.38;95.33;95504.94;5052622;28;20546;-61
2022/10/29 03:26:01;;;;;;;6.27;3.37;;;;;;;9.49;95.38;95502.50;5052885;28;20535;-61
2022/10/29 03:28:29;;;;;;;4.20;2.90;;;;;;;9.61;95.09;95514.38;5052958;28;20557;-63
2022/10/29 03:30:54;;;;;;;4.33;3.50;;;;;;;9.75;93.57;95523.59;5052890;28;20182;-63
2022/10/29 03:33:20;;;;;;;4.77;3.50;;;;;;;9.80;93.10;95529.97;5034649;28;20193;-63
2022/10/29 03:35:45;;;;;;;5.47;3.50;;;;;;;9.89;92.98;95534.44;5052459;28;20201;-62
2022/10/29 03:38:10;;;;;;;6.40;3.27;;;;;;;9.89;92.59;95539.53;5052493;28;20185;-62
2022/10/29 03:40:36;;;;;;;6.37;3.50;;;;;;;10.01;91.32;95543.78;5052242;28;20217;-63
2022/10/29 03:43:01;;;;;;;5.90;3.30;;;;;;;10.23;89.29;95568.53;5052831;28;20376;-61
2022/10/29 03:45:27;;;;;;;8.43;4.10;;;;;;;9.90;90.15;95551.28;5052470;28;20284;-62
2022/10/29 03:47:52;;;;;;;7.97;3.40;;;;;;;9.77;91.76;95516.69;5052311;28;20182;-64
2022/10/29 03:50:18;;;;;;;7.77;4.07;;;;;;;9.72;93.40;95508.56;5035095;28;20213;-61
2022/10/29 03:52:43;;;;;;;7.47;4.30;;;;;;;9.72;92.44;95511.09;5052364;28;20221;-61
2022/10/29 03:55:09;;;;;;;4.17;2.87;;;;;;;9.87;91.17;95545.63;5053081;28;20296;-60
2022/10/29 03:57:34;;;;;;;5.37;3.57;;;;;;;9.79;90.75;95546.16;5052090;28;20225;-59
2022/10/29 03:59:59;;;;;;;7.87;3.50;;;;;;;9.73;91.29;95533.03;5052924;28;20275;-60
2022/10/29 04:02:25;;;;;;;6.80;3.47;;;;;;;9.80;91.30;95541.84;5034601;28;20196;-62
2022/10/29 04:04:50;;;;;;;4.17;2.80;;;;;;;9.82;89.70;95553.53;5034708;28;20235;-61
2022/10/29 04:07:16;;;;;;;3.97;3.10;;;;;;;9.87;89.75;95555.78;5052537;28;20193;-60
2022/10/29 04:09:41;;;;;;;7.93;3.53;;;;;;;10.10;88.00;95585.53;5052152;28;20296;-61
2022/10/29 04:12:10;;;;;;;6.47;3.57;;;;;;;9.82;89.60;95563.69;5052071;28;20189;-61
2022/10/29 04:14:36;;;;;;;6.20;3.43;;;;;;;9.82;89.18;95557.78;5052143;28;20216;-60
2022/10/29 04:17:02;;;;;;;8.80;3.77;;;;;;;9.81;89.25;95556.19;5034233;28;20194;-61
2022/10/29 04:19:27;;;;;;;7.50;3.40;;;;;;;9.84;90.30;95550.88;5052281;28;20225;-61
2022/10/29 04:21:53;;;;;;;3.93;3.40;;;;;;;9.83;87.97;95577.22;5052055;28;20189;-60
2022/10/29 04:24:18;;;;;;;7.77;3.43;;;;;;;9.56;89.99;95548.56;5052293;28;20628;-64
2022/10/29 04:26:44;;;;;;;8.27;3.37;;;;;;;9.54;89.83;95551.22;5034153;28;20190;-63
2022/10/29 04:29:09;;;;;;;4.63;3.07;;;;;;;9.56;90.50;95551.94;5051748;28;20213;-63
2022/10/29 04:31:36;;;;;;;4.50;3.40;;;;;;;9.56;90.44;95553.66;5066927;23;20702;-61
2022/10/29 04:34:02;;;;;;;6.67;3.80;;;;;;;9.66;90.82;95554.66;5071661;28;20639;-61
2022/10/29 04:36:27;;;;;;;10.10;3.70;;;;;;;9.26;91.43;95541.25;5071743;28;20315;-60
2022/10/29 04:38:52;;;;;;;3.57;3.20;;;;;;;9.17;92.80;95521.59;5071401;28;20613;-59
2022/10/29 04:41:18;;;;;;;4.93;3.40;;;;;;;9.04;93.10;95520.75;5071900;28;20195;-59
2022/10/29 04:43:43;;;;;;;5.13;4.00;;;;;;;9.11;93.30;95512.63;5071877;28;20555;-60
2022/10/29 04:46:09;;;;;;;6.07;3.20;;;;;;;9.02;94.06;95509.88;5071734;28;20262;-60
2022/10/29 04:48:36;;;;;;;4.13;3.33;;;;;;;9.03;94.12;95498.84;5053371;28;20176;-58
2022/10/29 04:51:01;;;;;;;4.97;3.30;;;;;;;8.92;95.62;95493.63;5070958;28;20585;-60
2022/10/29 04:53:27;;;;;;;6.60;3.60;;;;;;;8.83;97.33;95479.00;5071268;28;20193;-61
2022/10/29 04:56:01;;;;;;;4.30;3.40;;;;;;;8.89;97.07;95488.75;5071434;28;20204;-60
2022/10/29 04:58:27;;;;;;;8.47;3.20;;;;;;;8.79;98.29;95472.50;5053205;28;20221;-61
2022/10/29 05:00:52;;;;;;;4.87;3.00;;;;;;;8.82;98.58;95474.88;5071665;28;20229;-60
2022/10/29 05:03:18;;;;;;;5.77;3.47;;;;;;;8.80;99.11;95477.50;5072258;28;20196;-61
2022/10/29 05:05:50;;;;;;;5.23;3.70;;;;;;;8.71;98.45;95477.25;5053259;28;20220;-60
2022/10/29 05:08:16;;;;;;;4.17;3.40;;;;;;;8.67;99.43;95466.50;5071268;28;20612;-60
2022/10/29 05:10:42;;;;;;;9.70;4.87;;;;;;;8.65;99.70;95475.13;5071215;28;20200;-61
2022/10/29 05:13:10;;;;;;;5.27;3.83;;;;;;;8.54;100.00;95459.81;5070898;28;20573;-60
2022/10/29 05:15:55;;;;;;;9.90;4.53;;;;;;;8.35;100.00;95457.63;5071152;28;20212;-61
2022/10/29 05:18:20;;;;;;;6.80;3.83;;;;;;;8.34;100.00;95463.59;5071277;28;20181;-61
2022/10/29 05:20:46;;;;;;;6.67;4.20;;;;;;;8.34;100.00;95469.47;5070888;28;20224;-61
2022/10/29 05:23:11;;;;;;;5.07;4.37;;;;;;;8.45;100.00;95479.75;5070991;28;20585;-60
2022/10/29 05:25:39;;;;;;;9.30;4.33;;;;;;;8.34;100.00;95473.75;5071064;28;20670;-64
2022/10/29 05:28:13;;;;;;;9.13;4.10;;;;;;;8.71;100.00;95484.88;5071513;28;20607;-60
2022/10/29 05:30:40;;;;;;;5.13;3.90;;;;;;;8.77;100.00;95497.16;5070790;28;20213;-60
2022/10/29 05:33:07;;;;;;;8.13;4.07;;;;;;;8.90;99.85;95524.19;5072510;28;20193;-61
2022/10/29 05:35:33;;;;;;;8.37;4.20;;;;;;;8.95;97.80;95531.47;5053732;28;20240;-59
2022/10/29 05:37:59;;;;;;;9.17;3.80;;;;;;;8.77;100.00;95508.09;5071711;28;20188;-60
2022/10/29 05:40:25;;;;;;;7.03;4.40;;;;;;;8.87;100.00;95503.25;5071048;28;20224;-61
2022/10/29 05:42:50;;;;;;;6.70;4.03;;;;;;;9.04;98.39;95541.03;5070883;28;20192;-62
2022/10/29 05:45:16;;;;;;;6.93;3.97;;;;;;;8.98;99.54;95534.63;5071285;28;20211;-61
2022/10/29 05:47:41;;;;;;;10.53;5.07;;;;;;;9.13;97.00;95563.28;5071553;28;20192;-61
2022/10/29 05:50:08;;;;;;;7.20;4.03;;;;;;;9.03;98.31;95547.03;5054179;28;20469;-61
2022/10/29 05:52:33;;;;;;;5.33;4.17;;;;;;;9.21;97.67;95549.16;5070582;28;20600;-60
2022/10/29 05:54:59;;;;;;;10.63;4.70;;;;;;;9.32;96.88;95556.09;5071085;28;20219;-63
2022/10/29 05:57:24;;;;;;;7.10;3.87;;;;;;;9.31;96.77;95562.09;5052882;28;20537;-61
2022/10/29 05:59:49;;;;;;;8.03;4.27;;;;;;;9.33;96.14;95561.06;5071471;28;20674;-60
2022/10/29 06:02:15;;;;;;;8.63;3.87;;;;;;;9.29;98.19;95541.06;5071449;28;20575;-59
2022/10/29 06:04:40;;;;;;;7.40;4.97;;;;;;;9.39;96.95;95552.25;5072794;28;20208;-60
2022/10/29 06:07:06;;;;;;;7.07;5.07;;;;;;;9.42;97.58;95557.09;5073850;28;20177;-61
2022/10/29 06:09:31;;;;;;;10.73;4.63;;;;;;;9.43;97.07;95555.38;5074149;28;20216;-59
2022/10/29 06:11:57;;;;;;;7.53;5.10;;;;;;;9.46;97.83;95563.59;5074570;28;20185;-61
2022/10/29 06:14:22;;;;;;;8.93;5.13;;;;;;;9.54;98.05;95560.56;5074218;28;20589;-61
2022/10/29 06:16:48;;;;;;;7.60;5.27;;;;;;;9.75;96.60;95587.88;5073666;28;20193;-61
2022/10/29 06:19:13;;;;;;;9.40;5.03;;;;;;;9.67;97.25;95571.53;5073445;28;20687;-63
2022/10/29 06:21:38;;;;;;;10.50;4.67;;;;;;;9.76;96.66;95573.44;5073751;28;20239;-61
2022/10/29 06:24:05;;;;;;;7.30;5.27;;;;;;;9.86;96.27;95577.81;5073720;28;20204;-60
2022/10/29 06:26:32;;;;;;;8.07;4.87;;;;;;;10.03;94.71;95604.63;5077000;23;20192;-61
2022/10/29 06:28:58;;;;;;;6.83;4.20;;;;;;;10.32;100.00;95560.31;5033471;28;20214;-59
2022/10/29 06:31:24;;;;;;;5.53;3.93;;;;;;;10.23;95.01;95623.63;5033599;28;20532;-60
2022/10/29 06:33:49;;;;;;;9.87;4.40;;;;;;;10.36;91.69;95660.03;5033706;28;20206;-60
2022/10/29 06:36:17;;;;;;;3.87;3.20;;;;;;;10.43;89.19;95679.81;5034345;28;20186;-60
2022/10/29 06:38:42;;;;;;;6.13;3.50;;;;;;;10.49;88.25;95687.03;5033407;28;20272;-61
2022/10/29 06:41:09;;;;;;;3.20;2.90;;;;;;;10.35;88.29;95686.34;5034279;28;20237;-61
2022/10/29 06:43:34;;;;;;;4.43;3.17;;;;;;;11.23;100.00;95526.56;5034632;28;20201;-61
2022/10/29 06:46:00;;;;;;;9.00;3.50;;;;;;;11.11;100.00;95608.09;5033167;28;20190;-62
2022/10/29 06:48:25;;;;;;;5.87;3.30;;;;;;;10.92;100.00;95718.00;5033337;28;20194;-61
2022/10/29 06:50:51;;;;;;;6.77;2.90;;;;;;;10.79;100.00;95732.44;5016075;28;20206;-60
2022/10/29 06:53:17;;;;;;;3.37;3.00;;;;;;;10.69;100.00;95721.28;5033204;28;20297;-60
2022/10/29 06:55:43;;;;;;;6.33;3.47;;;;;;;10.67;100.00;95710.41;5033515;28;20214;-63
2022/10/29 06:58:17;;;;;;;6.13;3.60;;;;;;;10.54;100.00;95667.22;5015897;28;20198;-60
2022/10/29 07:00:43;;;;;;;3.87;3.37;;;;;;;10.69;100.00;95683.13;5033601;28;20213;-61
2022/10/29 07:03:13;;;;;;;5.07;3.30;;;;;;;10.76;100.00;95702.16;5034343;28;20194;-61
2022/10/29 07:05:39;;;;;;;5.20;3.43;;;;;;;10.94;100.00;95690.72;5033467;28;20699;-60
2022/10/29 07:08:04;;;;;;;7.30;3.43;;;;;;;10.73;100.00;95662.47;5033381;28;20190;-62
2022/10/29 07:10:31;;;;;;;4.53;3.53;;;;;;;10.87;100.00;95667.41;5015062;28;20316;-61
2022/10/29 07:12:57;;;;;;;3.60;2.97;;;;;;;11.18;100.00;95701.72;5033257;28;20186;-61
2022/10/29 07:15:23;;;;;;;5.00;3.27;;;;;;;11.23;100.00;95706.50;5032480;28;20760;-61
2022/10/29 07:17:54;;;;;;;10.10;3.53;;;;;;;11.82;100.00;95562.13;5033725;28;20196;-61
2022/10/29 07:20:20;;;;;;;6.53;2.90;;;;;;;11.75;100.00;95745.19;5032497;28;20268;-60
2022/10/29 07:22:46;;;;;;;7.33;3.37;;;;;;;11.65;100.00;95711.91;5033182;28;20192;-61
2022/10/29 07:25:12;;;;;;;5.30;3.30;;;;;;;11.70;100.00;95726.84;5033516;28;20287;-59
2022/10/29 07:27:37;;;;;;;6.10;3.07;;;;;;;11.90;100.00;95749.16;5032796;28;20182;-59
2022/10/29 07:30:03;;;;;;;6.57;3.57;;;;;;;12.17;100.00;95802.44;5032417;28;20214;-59
2022/10/29 07:32:28;;;;;;;5.50;3.30;;;;;;;12.11;100.00;95767.19;5032744;28;20198;-59
2022/10/29 07:34:54;;;;;;;3.63;2.53;;;;;;;12.13;100.00;95755.13;5032820;28;20256;-61
2022/10/29 07:37:20;;;;;;;4.13;3.13;;;;;;;12.26;100.00;95756.66;5032697;28;20181;-60
2022/10/29 07:39:45;;;;;;;4.80;3.83;;;;;;;12.50;100.00;95788.00;5014567;28;20213;-59
2022/10/29 07:42:10;;;;;;;7.03;3.00;;;;;;;12.69;100.00;95782.34;5032787;28;20217;-62
2022/10/29 07:44:36;;;;;;;4.87;3.50;;;;;;;13.02;97.18;95838.53;5032377;28;20224;-61
2022/10/29 07:47:02;;;;;;;4.83;3.73;;;;;;;13.13;96.16;95851.31;5033304;28;20186;-62
2022/10/29 07:49:27;;;;;;;8.13;3.80;;;;;;;13.85;100.00;95585.88;5032713;28;20221;-61
2022/10/29 07:51:52;;;;;;;6.10;3.73;;;;;;;13.77;100.00;95739.03;5015875;28;20189;-63
2022/10/29 07:54:18;;;;;;;10.13;5.10;;;;;;;13.82;99.00;95808.50;5032438;28;20300;-61
2022/10/29 07:56:43;;;;;;;21.70;7.33;;;;;;;13.99;99.07;95790.06;5014747;28;20545;-62
2022/10/29 07:59:13;;;;;;;11.35;7.40;;;;;;;14.31;98.15;95798.56;5031944;28;20222;-61
2022/10/29 08:01:38;;;;;;;14.15;7.38;;;;;;;14.60;95.59;95839.69;5015017;28;20213;-61
2022/10/29 08:04:04;;;;;;;15.25;7.28;;;;;;;14.65;94.34;95845.25;5032130;28;20241;-62
2022/10/29 08:06:29;;;;;;;14.73;7.50;;;;;;;14.66;93.98;95845.13;5032075;28;20255;-61
2022/10/29 08:08:55;;;;;;;13.70;7.60;;;;;;;15.10;91.17;95887.56;5031813;28;20218;-62
2022/10/29 08:11:20;;;;;;;13.40;7.45;;;;;;;15.32;89.14;95914.78;5032630;28;20285;-63
2022/10/29 08:13:47;;;;;;;14.05;7.68;;;;;;;15.41;88.27;95911.47;5032614;28;20194;-61
2022/10/29 08:16:13;;;;;;;13.73;7.85;;;;;;;15.58;86.67;95931.38;5014503;28;20190;-61
2022/10/29 08:18:38;;;;;;;22.45;8.40;;;;;;;15.62;86.53;95914.78;5031702;28;20676;-61
2022/10/29 08:21:04;;;;;;;13.25;7.57;;;;;;;15.84;85.21;95935.13;5055619;22;20735;-61
2022/10/29 08:23:30;;;;;;;15.25;7.75;;;;;;;15.97;87.10;95884.41;5071647;28;20656;-61
2022/10/29 08:25:57;;;;;;;18.40;7.65;;;;;;;16.12;85.14;95924.13;5071740;28;20197;-64
2022/10/29 08:28:22;;;;;;;13.02;7.43;;;;;;;16.42;83.85;95951.47;5071846;28;20342;-62
2022/10/29 08:30:49;;;;;;;16.13;7.70;;;;;;;16.79;71.46;96011.53;5054641;28;20300;-62
2022/10/29 08:33:14;;;;;;;21.83;8.20;;;;;;;16.94;65.29;95996.53;5071547;28;20215;-59
2022/10/29 08:35:58;;;;;;;13.95;7.22;;;;;;;17.00;65.27;95965.97;5071479;28;20287;-59
2022/10/29 08:38:24;;;;;;;16.45;7.40;;;;;;;16.73;65.17;95953.81;5053311;28;20196;-58
2022/10/29 08:40:58;;;;;;;14.00;7.47;;;;;;;17.20;63.61;95984.75;5071413;28;20247;-61
2022/10/29 08:43:24;;;;;;;16.85;7.80;;;;;;;17.57;62.58;96003.66;5071445;28;20262;-60
2022/10/29 08:45:51;;;;;;;14.63;7.47;;;;;;;17.68;61.93;95995.75;5071202;28;20288;-60
2022/10/29 08:48:21;;;;;;;33.08;7.82;;;;;;;17.77;62.18;95979.50;5071597;28;20207;-60
2022/10/29 08:51:04;;;;;;;18.05;9.05;;;;;;;18.09;61.96;95981.66;5071418;28;20289;-59
2022/10/29 08:53:40;;;;;;;13.93;8.32;;;;;;;18.42;60.03;96019.72;5071273;28;20307;-60
2022/10/29 08:56:13;;;;;;;15.25;7.90;;;;;;;18.23;58.93;96036.06;5071064;28;20207;-59
2022/10/29 08:58:46;;;;;;;13.70;7.47;;;;;;;18.80;57.71;96050.44;5071216;28;20216;-61
2022/10/29 09:01:12;;;;;;;10.52;7.30;;;;;;;19.08;55.98;96089.84;5071741;28;20720;-59
2022/10/29 09:03:37;;;;;;;11.77;7.65;;;;;;;19.04;55.48;96097.06;5071186;28;20173;-59
2022/10/29 09:06:16;;;;;;;12.13;7.63;;;;;;;19.48;53.45;96138.44;5070784;28;20200;-60
2022/10/29 09:09:01;;;;;;;11.02;7.85;;;;;;;19.47;54.40;96093.78;5053050;28;20202;-59
2022/10/29 09:11:42;;;;;;;9.80;7.13;;;;;;;19.51;55.87;96030.63;5069824;28;20258;-60
2022/10/29 09:14:36;;;;;;;14.75;8.93;;;;;;;19.37;54.17;96077.59;5070966;28;20232;-62
2022/10/29 09:17:25;;;;;;;13.65;9.18;;;;;;;19.66;53.24;96101.34;5071109;28;20185;-63
2022/10/29 09:20:11;;;;;;;14.90;9.20;;;;;;;19.69;52.43;96107.97;5070828;28;20307;-61
2022/10/29 09:23:18;;;;;;;13.05;8.82;;;;;;;20.28;51.09;96148.59;5070903;28;20199;-61
2022/10/29 09:25:49;;;;;;;12.60;9.40;;;;;;;20.27;51.15;96121.97;5057084;28;20226;-60
2022/10/29 09:28:32;;;;;;;15.90;9.32;;;;;;;20.41;52.00;96081.81;5070765;28;20719;-59
2022/10/29 09:31:12;;;;;;;12.52;8.93;;;;;;;20.60;51.90;96085.00;5052764;28;20196;-62
2022/10/29 09:33:39;;;;;;;16.17;9.95;;;;;;;20.76;51.16;96110.06;5070629;28;20212;-60
2022/10/29 09:36:14;;;;;;;12.90;9.55;;;;;;;20.92;49.26;96149.72;5070865;28;20245;-61
2022/10/29 09:38:56;;;;;;;14.50;8.73;;;;;;;21.24;48.56;96176.69;5070538;28;20192;-60
2022/10/29 09:41:26;;;;;;;15.20;9.15;;;;;;;21.41;47.97;96161.03;5052945;28;20581;-60
2022/10/29 09:44:03;;;;;;;12.27;9.18;;;;;;;21.64;49.78;96101.69;5070765;28;20296;-65
2022/10/29 09:46:40;;;;;;;16.23;8.77;;;;;;;21.84;48.03;96152.19;5071140;28;20253;-60
2022/10/29 09:49:21;;;;;;;16.40;10.15;;;;;;;21.87;47.03;96180.38;5070569;28;20217;-63
2022/10/29 09:51:52;;;;;;;16.63;9.85;;;;;;;21.97;46.21;96198.34;5070295;28;20554;-61
2022/10/29 09:54:18;;;;;;;14.85;8.48;;;;;;;21.89;45.67;96187.97;5070338;28;20303;-61
2022/10/29 09:56:45;;;;;;;19.13;9.57;;;;;;;21.63;46.74;96149.25;5052815;28;20224;-61
2022/10/29 09:59:16;;;;;;;13.88;9.35;;;;;;;21.99;46.59;96149.78;5070174;28;20669;-60
2022/10/29 10:01:41;;;;;;;12.95;9.95;;;;;;;22.19;45.57;96175.19;5070538;28;20205;-60
2022/10/29 10:04:18;;;;;;;17.25;9.18;;;;;;;22.30;46.07;96150.72;5070334;28;20284;-61
2022/10/29 10:07:19;;;;;;;14.35;9.27;;;;;;;22.40;45.02;96167.69;5070761;28;20257;-62
2022/10/29 10:09:59;;;;;;;14.43;8.70;;;;;;;22.92;44.53;96193.19;5008584;28;20226;-62
2022/10/29 10:12:36;;;;;;;13.02;9.43;;;;;;;23.15;44.64;96171.50;5063325;28;20740;-63
2022/10/29 10:15:15;;;;;;;15.50;9.65;;;;;;;23.10;44.54;96152.25;5070114;28;20230;-64
2022/10/29 10:17:56;;;;;;;18.23;9.20;;;;;;;22.96;44.54;96155.56;5070669;28;20195;-60
2022/10/29 10:20:41;;;;;;;12.38;8.45;;;;;;;23.16;43.84;96170.56;5070318;28;20229;-62
2022/10/29 10:23:18;;;;;;;12.43;8.35;;;;;;;23.18;43.12;96175.56;5070105;28;20694;-62
2022/10/29 10:25:44;;;;;;;17.05;8.48;;;;;;;23.17;43.14;96132.41;5068892;28;20257;-60
2022/10/29 10:28:22;;;;;;;14.25;8.93;;;;;;;23.13;42.36;96144.09;5070083;28;20189;-61
2022/10/29 10:31:04;;;;;;;14.18;9.25;;;;;;;23.16;43.03;96108.25;5069947;28;20217;-60
2022/10/29 10:33:32;;;;;;;17.48;8.00;;;;;;;23.67;42.01;96137.16;5070112;28;20181;-64
2022/10/29 10:36:07;;;;;;;12.43;8.82;;;;;;;23.81;42.61;96115.63;5070178;28;20237;-64
2022/10/29 10:39:02;;;;;;;10.73;7.03;;;;;;;24.04;41.25;96135.41;5069987;28;20184;-63
2022/10/29 10:41:30;;;;;;;13.85;7.85;;;;;;;23.96;41.89;96116.44;5056975;28;20258;-64
2022/10/29 10:44:03;;;;;;;10.82;6.63;;;;;;;23.79;40.81;96140.97;5069913;28;20701;-63
2022/10/29 10:46:41;;;;;;;14.65;6.85;;;;;;;23.42;41.57;96099.34;5070145;28;20189;-63
2022/10/29 10:49:15;;;;;;;17.60;7.03;;;;;;;23.12;42.38;96060.28;5070136;28;20205;-63
2022/10/29 10:51:49;;;;;;;12.95;6.63;;;;;;;23.12;42.06;96065.47;5073309;28;20188;-63
2022/10/29 10:54:31;;;;;;;8.35;6.35;;;;;;;23.24;42.48;96034.72;5073285;28;20209;-64
2022/10/29 10:56:58;;;;;;;10.15;6.05;;;;;;;23.31;43.00;96017.50;5073297;28;20216;-64
2022/10/29 10:59:34;;;;;;;13.55;6.70;;;;;;;23.51;42.61;96034.22;5073282;28;20217;-62
2022/10/29 11:02:02;;;;;;;7.57;5.65;;;;;;;23.41;42.44;96020.69;5074312;28;20204;-62
2022/10/29 11:04:36;;;;;;;8.38;5.32;;;;;;;22.95;42.04;96032.00;5073277;28;20734;-61
2022/10/29 11:07:07;;;;;;;9.80;4.70;;;;;;;22.84;42.67;96003.88;5073214;28;20200;-61
2022/10/29 11:09:39;;;;;;;12.88;4.85;;;;;;;22.78;42.84;95995.00;5054906;28;20266;-62
2022/10/29 11:12:12;;;;;;;10.98;4.82;;;;;;;23.04;42.63;95998.06;5073483;28;20216;-60
2022/10/29 11:15:08;;;;;;;5.63;4.60;;;;;;;22.35;43.53;95965.22;5054985;28;20295;-62
2022/10/29 11:17:50;;;;;;;6.20;4.05;;;;;;;22.30;43.14;95946.78;5069813;28;20210;-62
2022/10/29 11:20:30;;;;;;;7.60;4.03;;;;;;;22.52;42.92;95969.31;5072866;28;20212;-60
2022/10/29 11:23:07;;;;;;;5.07;4.00;;;;;;;22.59;42.50;95969.50;5073032;28;20200;-61
2022/10/29 11:25:44;;;;;;;11.65;4.38;;;;;;;22.46;42.81;95951.09;5072819;28;20240;-61
2022/10/29 11:28:28;;;;;;;5.88;3.67;;;;;;;22.15;43.59;95913.97;5072759;28;20709;-61
2022/10/29 11:31:02;;;;;;;5.68;4.15;;;;;;;22.59;43.21;95940.97;5072944;28;20227;-62
2022/10/29 11:33:54;;;;;;;6.53;3.95;;;;;;;23.10;42.77;95936.88;5073195;28;20720;-60
2022/10/29 11:36:24;;;;;;;5.90;3.60;;;;;;;23.40;42.83;95951.56;5072858;28;20188;-61
2022/10/29 11:39:00;;;;;;;4.00;3.40;;;;;;;23.73;41.80;95991.00;5054441;28;20766;-60
2022/10/29 11:41:37;;;;;;;4.35;2.38;;;;;;;23.63;40.18;96047.59;5073212;28;20195;-61
2022/10/29 11:44:08;;;;;;;3.47;2.85;;;;;;;23.87;39.69;96050.78;5054837;28;20285;-60
2022/10/29 11:47:12;;;;;;;3.10;1.95;;;;;;;24.18;38.46;96090.44;5072757;28;20566;-64
2022/10/29 11:49:43;;;;;;;3.35;2.45;;;;;;;23.58;38.19;96079.28;5072860;28;20212;-62